createdAt,value
2018-02-27T00:00:27.951Z,57.30
2018-02-27T00:02:54.942Z,57.40
2018-02-27T00:05:22.714Z,57.80
2018-02-27T00:07:50.482Z,57.80
2018-02-27T00:10:17.494Z,57.30
2018-02-27T00:12:44.498Z,57.70
2018-02-27T00:15:11.494Z,57.70
2018-02-27T00:17:39.258Z,57.70
2018-02-27T00:20:07.030Z,58.40
2018-02-27T00:22:34.795Z,58.30
2018-02-27T00:25:02.568Z,58.40
2018-02-27T00:27:30.330Z,58.30
2018-02-27T00:29:58.105Z,58.20
2018-02-27T00:32:25.106Z,58.10
2018-02-27T00:34:52.134Z,58.40
2018-02-27T00:37:19.130Z,58.10
2018-02-27T00:39:46.898Z,58.60
2018-02-27T00:42:13.906Z,58.20
2018-02-27T00:44:40.908Z,58.10
2018-02-27T00:47:07.914Z,58.10
2018-02-27T00:49:35.678Z,58.50
2018-02-27T00:52:02.681Z,58.40
2018-02-27T00:54:30.135Z,58.20
2018-02-27T00:56:57.587Z,58.40
2018-02-27T00:59:24.587Z,58.40
2018-02-27T01:01:52.355Z,58.60
2018-02-27T01:04:20.119Z,59.30
2018-02-27T01:06:47.918Z,59.20
2018-02-27T01:09:14.890Z,58.90
2018-02-27T01:11:41.905Z,59.10
2018-02-27T01:14:08.912Z,58.70
2018-02-27T01:16:36.687Z,58.30
2018-02-27T01:19:04.450Z,58.80
2018-02-27T01:21:32.224Z,59.10
2018-02-27T01:23:59.214Z,59.00
2018-02-27T01:26:26.221Z,58.30
2018-02-27T01:28:53.234Z,58.40
2018-02-27T01:31:21.005Z,59.00
2018-02-27T01:33:48.775Z,58.90
2018-02-27T01:36:16.550Z,59.10
2018-02-27T01:38:43.550Z,58.70
2018-02-27T01:41:10.552Z,58.60
2018-02-27T01:43:37.554Z,58.40
2018-02-27T01:46:04.553Z,58.70
2018-02-27T01:48:31.566Z,58.40
2018-02-27T01:51:05.270Z,58.90
2018-02-27T01:53:33.037Z,59.00
2018-02-27T01:56:00.046Z,58.60
2018-02-27T01:58:27.058Z,58.60
2018-02-27T02:00:54.058Z,58.60
2018-02-27T02:03:21.830Z,59.10
2018-02-27T02:05:49.594Z,59.20
2018-02-27T02:08:17.366Z,58.80
2018-02-27T02:10:44.365Z,58.80
2018-02-27T02:13:11.373Z,58.90
2018-02-27T02:15:38.377Z,58.70
2018-02-27T02:18:05.386Z,58.80
2018-02-27T02:20:32.385Z,59.10
2018-02-27T02:23:00.173Z,59.10
2018-02-27T02:25:27.162Z,58.80
2018-02-27T02:27:54.165Z,58.60
2018-02-27T02:30:21.165Z,59.50
2018-02-27T02:32:48.179Z,59.00
2018-02-27T02:35:15.178Z,58.90
2018-02-27T02:37:42.944Z,58.90
2018-02-27T02:40:10.715Z,58.70
2018-02-27T02:42:37.718Z,58.50
2018-02-27T02:45:04.729Z,58.50
2018-02-27T02:47:31.726Z,58.80
2018-02-27T02:49:59.503Z,59.40
2018-02-27T02:52:28.083Z,59.60
2018-02-27T02:54:55.853Z,59.40
2018-02-27T02:57:22.862Z,59.10
2018-02-27T02:59:49.871Z,58.90
2018-02-27T03:02:16.870Z,59.20
2018-02-27T03:04:43.877Z,59.00
2018-02-27T03:07:10.878Z,59.00
2018-02-27T03:09:38.650Z,59.80
2018-02-27T03:12:05.658Z,59.60
2018-02-27T03:14:32.662Z,59.20
2018-02-27T03:16:59.662Z,59.50
2018-02-27T03:19:27.429Z,60.60
2018-02-27T03:21:55.201Z,59.90
2018-02-27T03:24:22.957Z,60.00
2018-02-27T03:26:51.188Z,60.10
2018-02-27T03:29:18.185Z,59.60
2018-02-27T03:31:45.947Z,60.50
2018-02-27T03:34:13.719Z,60.70
2018-02-27T03:36:40.727Z,59.90
2018-02-27T03:39:07.732Z,60.30
2018-02-27T03:41:34.738Z,60.80
2018-02-27T03:44:02.504Z,60.90
2018-02-27T03:46:30.277Z,60.60
2018-02-27T03:48:58.043Z,60.60
2018-02-27T03:51:25.055Z,60.30
2018-02-27T03:53:52.054Z,60.30
2018-02-27T03:56:19.058Z,60.30
2018-02-27T03:58:46.058Z,60.80
2018-02-27T04:01:13.063Z,60.60
2018-02-27T04:03:40.828Z,61.20
2018-02-27T04:06:08.597Z,61.40
2018-02-27T04:08:35.603Z,60.90
2018-02-27T04:11:02.606Z,61.50
2018-02-27T04:13:29.611Z,61.80
2018-02-27T04:15:56.622Z,61.40
2018-02-27T04:18:23.622Z,61.40
2018-02-27T04:20:51.392Z,62.20
2018-02-27T04:23:18.402Z,62.10
2018-02-27T04:25:45.401Z,61.80
2018-02-27T04:28:12.402Z,61.80
2018-02-27T04:30:39.416Z,60.90
2018-02-27T04:33:06.413Z,61.50
2018-02-27T04:35:33.426Z,61.10
2018-02-27T04:38:00.421Z,62.20
2018-02-27T04:40:27.430Z,62.10
2018-02-27T04:42:54.441Z,61.60
2018-02-27T04:45:21.466Z,61.70
2018-02-27T04:47:49.237Z,62.60
2018-02-27T04:50:16.229Z,61.90
2018-02-27T04:52:43.243Z,62.30
2018-02-27T04:55:10.241Z,62.40
2018-02-27T04:57:38.027Z,63.80
2018-02-27T05:00:05.030Z,63.10
2018-02-27T05:02:32.045Z,62.90
2018-02-27T05:04:59.041Z,62.70
2018-02-27T05:07:26.814Z,63.50
2018-02-27T05:09:53.822Z,62.70
2018-02-27T05:12:20.827Z,62.80
2018-02-27T05:14:47.836Z,62.90
2018-02-27T05:17:15.602Z,63.60
2018-02-27T05:19:43.369Z,63.80
2018-02-27T05:22:11.155Z,64.00
2018-02-27T05:24:38.159Z,63.40
2018-02-27T05:27:05.931Z,64.10
2018-02-27T05:29:33.698Z,64.00
2018-02-27T05:32:01.470Z,64.10
2018-02-27T05:34:28.486Z,63.50
2018-02-27T05:36:55.502Z,63.20
2018-02-27T05:39:22.503Z,64.30
2018-02-27T05:41:50.287Z,64.00
2018-02-27T05:44:17.275Z,63.80
2018-02-27T05:46:44.282Z,63.50
2018-02-27T05:49:11.297Z,63.90
2018-02-27T05:51:39.058Z,64.50
2018-02-27T05:54:06.822Z,65.00
2018-02-27T05:56:34.601Z,64.70
2018-02-27T05:59:01.600Z,64.90
2018-02-27T06:01:28.607Z,64.40
2018-02-27T06:03:55.614Z,64.10
2018-02-27T06:06:23.382Z,64.20
2018-02-27T06:08:51.142Z,63.80
2018-02-27T06:11:18.914Z,63.50
2018-02-27T06:13:46.687Z,63.90
2018-02-27T06:16:13.694Z,63.30
2018-02-27T06:18:40.703Z,63.30
2018-02-27T06:21:07.701Z,63.40
2018-02-27T06:23:34.710Z,63.20
2018-02-27T06:26:01.706Z,63.10
2018-02-27T06:28:29.483Z,64.10
2018-02-27T06:30:56.486Z,63.70
2018-02-27T06:33:23.509Z,63.30
2018-02-27T06:35:50.498Z,62.80
2018-02-27T06:38:18.273Z,63.60
2018-02-27T06:40:46.038Z,63.70
2018-02-27T06:43:13.824Z,62.90
2018-02-27T06:45:40.930Z,62.10
2018-02-27T06:48:07.942Z,62.40
2018-02-27T06:50:34.942Z,63.30
2018-02-27T06:53:02.717Z,61.20
2018-02-27T06:55:29.718Z,60.60
2018-02-27T06:57:56.722Z,60.20
2018-02-27T07:00:23.724Z,60.50
2018-02-27T07:02:50.729Z,60.40
2018-02-27T07:05:17.732Z,60.10
2018-02-27T07:07:45.507Z,60.80
2018-02-27T07:10:12.510Z,60.10
2018-02-27T07:12:39.518Z,60.30
2018-02-27T07:15:06.513Z,59.60
2018-02-27T07:17:33.522Z,59.60
2018-02-27T07:20:00.522Z,59.40
2018-02-27T07:22:28.297Z,58.20
2018-02-27T07:24:55.309Z,58.10
2018-02-27T07:27:22.322Z,58.30
2018-02-27T07:29:49.333Z,57.60
2018-02-27T07:32:16.345Z,57.80
2018-02-27T07:34:43.359Z,57.80
2018-02-27T07:37:10.367Z,57.20
2018-02-27T07:39:37.378Z,57.00
2018-02-27T07:42:04.378Z,56.70
2018-02-27T07:44:31.391Z,57.10
2018-02-27T07:46:59.189Z,56.30
2018-02-27T07:49:26.969Z,56.40
2018-02-27T07:51:53.971Z,55.80
2018-02-27T07:54:21.743Z,56.20
2018-02-27T07:56:48.746Z,56.00
2018-02-27T07:59:15.759Z,54.30
2018-02-27T08:01:43.530Z,53.90
2018-02-27T08:04:10.588Z,53.50
2018-02-27T08:06:37.534Z,53.00
2018-02-27T08:09:04.546Z,52.90
2018-02-27T08:11:31.554Z,52.10
2018-02-27T08:13:58.564Z,52.60
2018-02-27T08:16:25.561Z,52.90
2018-02-27T08:18:53.330Z,53.60
2018-02-27T08:21:20.326Z,53.10
2018-02-27T08:23:47.333Z,53.60
2018-02-27T08:26:14.342Z,54.50
2018-02-27T08:28:42.115Z,54.60
2018-02-27T08:31:09.877Z,54.60
2018-02-27T08:33:37.650Z,54.00
2018-02-27T08:36:05.419Z,53.70
2018-02-27T08:38:32.417Z,53.40
2018-02-27T08:40:59.414Z,51.30
2018-02-27T08:43:26.429Z,50.50
2018-02-27T08:45:53.431Z,49.10
2018-02-27T08:48:20.430Z,47.80
2018-02-27T08:50:48.193Z,45.50
2018-02-27T08:53:15.965Z,45.00
2018-02-27T08:55:43.730Z,45.60
2018-02-27T08:58:11.504Z,44.40
2018-02-27T09:00:38.502Z,44.30
2018-02-27T09:03:05.515Z,44.30
2018-02-27T09:05:32.523Z,43.60
2018-02-27T09:08:00.294Z,45.30
2018-02-27T09:10:28.069Z,46.70
2018-02-27T09:12:55.072Z,46.60
2018-02-27T09:15:22.082Z,46.30
2018-02-27T09:17:49.090Z,46.00
2018-02-27T09:20:16.907Z,46.20
2018-02-27T09:22:43.871Z,46.50
2018-02-27T09:25:10.879Z,46.30
2018-02-27T09:27:37.878Z,46.70
2018-02-27T09:30:05.655Z,46.50
2018-02-27T09:32:33.422Z,47.50
2018-02-27T09:35:01.207Z,48.00
2018-02-27T09:37:28.190Z,47.60
2018-02-27T09:39:55.193Z,47.90
2018-02-27T09:42:22.186Z,47.00
2018-02-27T09:44:49.207Z,47.00
2018-02-27T09:47:16.192Z,47.10
2018-02-27T09:49:43.203Z,46.90
2018-02-27T09:52:10.222Z,46.90
2018-02-27T09:54:37.218Z,47.20
2018-02-27T09:57:04.218Z,46.90
2018-02-27T09:59:31.228Z,46.80
2018-02-27T10:01:58.997Z,45.70
2018-02-27T10:04:26.766Z,45.50
2018-02-27T10:06:54.534Z,45.30
2018-02-27T10:09:21.549Z,45.20
2018-02-27T10:11:48.542Z,45.30
2018-02-27T10:14:15.550Z,46.40
2018-02-27T10:16:43.318Z,46.50
2018-02-27T10:19:11.092Z,46.20
2018-02-27T10:21:38.865Z,45.80
2018-02-27T10:24:05.869Z,45.60
2018-02-27T10:26:32.870Z,45.70
2018-02-27T10:28:59.878Z,47.00
2018-02-27T10:31:26.881Z,46.70
2018-02-27T10:33:53.887Z,45.40
2018-02-27T10:36:20.898Z,45.90
2018-02-27T10:38:47.903Z,45.10
2018-02-27T10:41:14.912Z,44.20
2018-02-27T10:43:42.670Z,44.00
2018-02-27T10:46:10.446Z,44.70
2018-02-27T10:48:38.218Z,44.90
2018-02-27T10:51:05.218Z,44.80
2018-02-27T10:53:32.224Z,44.70
2018-02-27T10:55:59.226Z,45.10
2018-02-27T10:58:26.226Z,44.30
2018-02-27T11:00:57.177Z,44.20
2018-02-27T11:03:24.183Z,44.50
2018-02-27T11:05:51.203Z,44.90
2018-02-27T11:08:18.214Z,45.40
2018-02-27T11:10:45.223Z,44.70
2018-02-27T11:13:12.218Z,44.00
2018-02-27T11:15:39.227Z,45.10
2018-02-27T11:18:06.225Z,45.10
2018-02-27T11:20:33.242Z,44.60
2018-02-27T11:23:00.250Z,45.20
2018-02-27T11:25:27.257Z,44.80
2018-02-27T11:27:54.267Z,44.80
2018-02-27T11:30:21.275Z,44.70
2018-02-27T11:32:49.042Z,44.90
2018-02-27T11:35:16.822Z,43.20
2018-02-27T11:37:43.819Z,43.00
2018-02-27T11:40:10.826Z,41.30
2018-02-27T11:42:37.835Z,40.00
2018-02-27T11:45:05.602Z,39.70
2018-02-27T11:47:33.366Z,40.10
2018-02-27T11:50:01.154Z,39.60
2018-02-27T11:52:28.142Z,39.60
2018-02-27T11:54:55.607Z,37.70
2018-02-27T11:57:22.610Z,37.20
2018-02-27T11:59:49.606Z,36.40
2018-02-27T12:02:17.388Z,38.10
2018-02-27T12:04:44.840Z,37.10
2018-02-27T12:07:12.310Z,37.90
2018-02-27T12:09:39.767Z,38.00
2018-02-27T12:12:07.230Z,36.80
2018-02-27T12:14:34.678Z,35.70
2018-02-27T12:17:01.693Z,33.00
2018-02-27T12:19:28.705Z,31.70
2018-02-27T12:21:55.707Z,33.00
2018-02-27T12:24:23.155Z,32.90
2018-02-27T12:26:51.371Z,32.00
2018-02-27T12:29:18.410Z,31.80
2018-02-27T12:31:46.146Z,33.20
2018-02-27T12:34:13.150Z,33.00
2018-02-27T12:36:40.620Z,32.70
2018-02-27T12:39:08.066Z,34.60
2018-02-27T12:41:35.523Z,32.60
2018-02-27T12:44:02.518Z,32.40
2018-02-27T12:46:29.526Z,33.40
2018-02-27T12:48:56.529Z,36.30
2018-02-27T12:51:23.531Z,37.20
2018-02-27T12:53:51.304Z,36.20
2018-02-27T12:56:19.079Z,36.30
2018-02-27T12:58:46.078Z,36.30
2018-02-27T13:01:13.092Z,36.60
2018-02-27T13:03:40.096Z,37.40
2018-02-27T13:06:07.862Z,37.80
2018-02-27T13:08:35.635Z,37.80
2018-02-27T13:11:03.402Z,38.20
2018-02-27T13:13:30.410Z,37.70
2018-02-27T13:15:57.412Z,38.60
2018-02-27T13:18:24.410Z,37.20
2018-02-27T13:20:51.425Z,35.20
2018-02-27T13:23:18.431Z,34.80
2018-02-27T13:25:45.439Z,34.20
2018-02-27T13:28:12.463Z,33.80
2018-02-27T13:30:39.506Z,35.50
2018-02-27T13:33:06.936Z,34.90
2018-02-27T13:35:33.942Z,34.30
2018-02-27T13:38:00.958Z,33.10
2018-02-27T13:40:28.558Z,33.50
2018-02-27T13:42:56.335Z,33.80
2018-02-27T13:45:24.099Z,33.10
2018-02-27T13:47:51.125Z,33.10
2018-02-27T13:50:18.098Z,33.00
2018-02-27T13:52:45.106Z,33.30
2018-02-27T13:55:12.110Z,33.80
2018-02-27T13:57:39.119Z,35.30
2018-02-27T14:00:06.880Z,36.90
2018-02-27T14:02:34.655Z,36.10
2018-02-27T14:05:01.658Z,36.30
2018-02-27T14:07:28.666Z,36.40
2018-02-27T14:09:55.665Z,36.20
2018-02-27T14:12:22.678Z,36.50
2018-02-27T14:14:49.675Z,36.10
2018-02-27T14:17:17.447Z,35.20
2018-02-27T14:19:44.452Z,35.10
2018-02-27T14:22:11.465Z,35.40
2018-02-27T14:24:38.458Z,37.20
2018-02-27T14:27:05.475Z,37.80
2018-02-27T14:29:32.470Z,38.30
2018-02-27T14:32:00.274Z,39.00
2018-02-27T14:34:27.270Z,38.50
2018-02-27T14:36:55.037Z,39.70
2018-02-27T14:39:22.805Z,39.60
2018-02-27T14:41:50.595Z,40.00
2018-02-27T14:44:17.590Z,39.60
2018-02-27T14:46:44.586Z,39.70
2018-02-27T14:49:11.591Z,39.50
2018-02-27T14:51:39.357Z,41.10
2018-02-27T14:54:07.139Z,41.30
2018-02-27T14:56:34.146Z,40.80
2018-02-27T14:59:01.144Z,41.10
2018-02-27T15:01:28.157Z,40.80
2018-02-27T15:03:55.922Z,41.40
2018-02-27T15:06:23.690Z,41.70
2018-02-27T15:08:51.454Z,41.50
2018-02-27T15:11:19.221Z,41.40
2018-02-27T15:13:46.995Z,41.50
2018-02-27T15:16:14.002Z,41.00
2018-02-27T15:18:41.007Z,41.60
2018-02-27T15:21:08.014Z,41.90
2018-02-27T15:23:35.777Z,41.70
2018-02-27T15:26:03.550Z,42.00
2018-02-27T15:28:31.327Z,41.60
2018-02-27T15:30:58.325Z,41.30
2018-02-27T15:33:25.355Z,42.10
2018-02-27T15:35:52.346Z,41.30
2018-02-27T15:38:20.118Z,41.30
2018-02-27T15:40:47.134Z,41.00
2018-02-27T15:43:14.175Z,41.30
2018-02-27T15:45:41.170Z,42.00
2018-02-27T15:48:08.180Z,41.90
2018-02-27T15:50:35.951Z,43.20
2018-02-27T15:53:03.718Z,43.30
2018-02-27T15:55:31.486Z,42.90
2018-02-27T15:57:59.256Z,42.50
2018-02-27T16:00:26.265Z,42.30
2018-02-27T16:02:53.265Z,42.40
2018-02-27T16:05:20.270Z,42.70
2018-02-27T16:07:47.315Z,42.90
2018-02-27T16:10:14.282Z,43.10
2018-02-27T16:12:42.051Z,42.40
2018-02-27T16:15:09.076Z,42.00
2018-02-27T16:17:36.833Z,42.80
2018-02-27T16:20:03.847Z,42.30
2018-02-27T16:22:30.842Z,42.40
2018-02-27T16:24:58.626Z,43.40
2018-02-27T16:27:25.634Z,43.00
2018-02-27T16:29:52.654Z,42.90
2018-02-27T16:32:19.639Z,43.10
2018-02-27T16:34:47.410Z,43.00
2018-02-27T16:37:15.171Z,43.70
2018-02-27T16:39:42.942Z,43.90
2018-02-27T16:42:09.975Z,43.50
2018-02-27T16:44:37.742Z,44.50
2018-02-27T16:47:05.506Z,44.50
2018-02-27T16:49:33.282Z,44.80
2018-02-27T16:52:00.294Z,45.00
2018-02-27T16:54:27.313Z,44.10
2018-02-27T16:56:54.324Z,44.00
2018-02-27T16:59:21.326Z,44.40
2018-02-27T17:01:48.325Z,44.50
2018-02-27T17:04:15.330Z,44.30
2018-02-27T17:06:42.352Z,44.50
2018-02-27T17:09:09.350Z,44.70
2018-02-27T17:11:36.351Z,44.90
2018-02-27T17:14:03.357Z,44.60
2018-02-27T17:16:30.359Z,44.80
2018-02-27T17:18:57.374Z,44.40
2018-02-27T17:21:24.382Z,44.80
2018-02-27T17:23:51.382Z,45.00
2018-02-27T17:26:18.454Z,45.70
2018-02-27T17:28:46.223Z,46.10
2018-02-27T17:31:13.986Z,45.80
2018-02-27T17:33:41.762Z,46.60
2018-02-27T17:36:08.766Z,46.20
2018-02-27T17:38:35.771Z,46.60
2018-02-27T17:41:02.790Z,46.70
2018-02-27T17:43:30.555Z,47.10
2018-02-27T17:45:58.383Z,47.60
2018-02-27T17:48:25.385Z,47.10
2018-02-27T17:50:52.393Z,47.50
2018-02-27T17:53:20.159Z,48.10
2018-02-27T17:55:47.938Z,48.30
2018-02-27T17:58:15.707Z,48.90
2018-02-27T18:00:43.245Z,48.50
2018-02-27T18:03:11.013Z,49.10
2018-02-27T18:05:39.702Z,49.00
2018-02-27T18:08:08.789Z,49.20
2018-02-27T18:10:36.559Z,49.50
2018-02-27T18:13:05.451Z,49.50
2018-02-27T18:15:33.209Z,49.20
2018-02-27T18:18:00.971Z,49.70
2018-02-27T18:20:28.751Z,49.20
2018-02-27T18:22:57.923Z,49.00
2018-02-27T18:25:25.696Z,48.60
2018-02-27T18:27:53.460Z,48.40
2018-02-27T18:30:21.526Z,48.30
2018-02-27T18:32:49.295Z,48.70
2018-02-27T18:35:18.643Z,49.00
2018-02-27T18:37:45.634Z,48.90
2018-02-27T18:40:13.411Z,49.80
2018-02-27T18:42:40.430Z,49.40
2018-02-27T18:45:07.431Z,50.50
2018-02-27T18:47:34.471Z,52.30
2018-02-27T18:50:01.487Z,52.90
2018-02-27T18:52:29.251Z,54.60
2018-02-27T18:54:57.022Z,54.70
2018-02-27T18:57:24.785Z,54.80
2018-02-27T18:59:51.796Z,54.30
2018-02-27T19:02:18.810Z,54.40
2018-02-27T19:04:45.826Z,54.60
2018-02-27T19:07:12.838Z,55.30
2018-02-27T19:09:39.838Z,55.10
2018-02-27T19:12:06.936Z,55.30
2018-02-27T19:14:34.746Z,56.70
2018-02-27T19:17:01.750Z,56.20
2018-02-27T19:19:28.759Z,56.60
2018-02-27T19:21:55.766Z,56.60
2018-02-27T19:24:22.774Z,56.60
2018-02-27T19:26:50.566Z,57.70
2018-02-27T19:29:18.335Z,57.50
2018-02-27T19:31:45.343Z,57.10
2018-02-27T19:34:12.333Z,57.70
2018-02-27T19:36:39.350Z,57.60
2018-02-27T19:39:07.129Z,58.60
2018-02-27T19:41:34.913Z,58.20
2018-02-27T19:44:01.922Z,58.00
2018-02-27T19:46:28.941Z,58.10
2018-02-27T19:48:55.935Z,59.10
2018-02-27T19:51:23.116Z,59.20
2018-02-27T19:53:50.140Z,59.80
2018-02-27T19:56:17.145Z,59.80
2018-02-27T19:58:44.143Z,59.40
2018-02-27T20:01:12.199Z,59.20
2018-02-27T20:03:39.377Z,59.30
2018-02-27T20:06:06.610Z,59.30
2018-02-27T20:08:33.627Z,59.50
2018-02-27T20:11:01.469Z,59.70
2018-02-27T20:13:28.422Z,59.20
2018-02-27T20:15:55.441Z,59.40
2018-02-27T20:18:25.223Z,60.50
2018-02-27T20:20:52.247Z,61.30
2018-02-27T20:23:25.850Z,61.90
2018-02-27T20:25:53.135Z,61.30
2018-02-27T20:28:26.009Z,61.70
2018-02-27T20:30:53.234Z,61.80
2018-02-27T20:33:20.387Z,61.30
2018-02-27T20:35:47.463Z,61.50
2018-02-27T20:38:14.497Z,61.30
2018-02-27T20:40:41.493Z,61.70
2018-02-27T20:43:08.589Z,61.40
2018-02-27T20:45:35.966Z,61.80
2018-02-27T20:48:03.995Z,62.60
2018-02-27T20:50:31.070Z,62.10
2018-02-27T20:52:58.062Z,62.00
2018-02-27T20:55:25.074Z,62.10
2018-02-27T20:57:52.092Z,62.20
2018-02-27T21:00:19.086Z,63.10
2018-02-27T21:02:46.100Z,62.20
2018-02-27T21:05:13.147Z,62.50
2018-02-27T21:07:40.146Z,62.80
2018-02-27T21:10:07.901Z,64.50
2018-02-27T21:12:35.674Z,64.80
2018-02-27T21:15:03.439Z,65.40
2018-02-27T21:17:31.209Z,65.00
2018-02-27T21:19:59.282Z,65.40
2018-02-27T21:22:26.293Z,64.40
2018-02-27T21:24:53.292Z,64.70
2018-02-27T21:27:20.309Z,65.10
2018-02-27T21:29:48.078Z,65.80
2018-02-27T21:32:15.851Z,65.70
2018-02-27T21:34:42.854Z,65.10
2018-02-27T21:37:09.858Z,66.00
2018-02-27T21:39:36.868Z,65.50
2018-02-27T21:42:04.651Z,65.90
2018-02-27T21:44:32.405Z,66.00
2018-02-27T21:47:00.174Z,65.90
2018-02-27T21:49:27.175Z,65.90
2018-02-27T21:51:54.192Z,65.60
2018-02-27T21:54:21.190Z,65.50
2018-02-27T21:56:48.206Z,66.40
2018-02-27T21:59:15.211Z,66.90
2018-02-27T22:01:42.210Z,66.90
2018-02-27T22:04:09.221Z,67.70
2018-02-27T22:06:36.223Z,67.80
2018-02-27T22:09:04.011Z,68.00
2018-02-27T22:11:31.007Z,67.10
2018-02-27T22:13:58.011Z,67.40
2018-02-27T22:16:25.020Z,66.90
2018-02-27T22:18:52.794Z,67.60
2018-02-27T22:21:20.554Z,67.70
2018-02-27T22:23:48.331Z,68.00
2018-02-27T22:26:15.360Z,67.70
2018-02-27T22:28:43.126Z,68.70
2018-02-27T22:31:10.898Z,68.40
2018-02-27T22:33:37.919Z,68.50
2018-02-27T22:36:04.912Z,68.70
2018-02-27T22:38:31.922Z,68.40
2018-02-27T22:40:59.694Z,68.80
2018-02-27T22:43:27.462Z,69.30
2018-02-27T22:45:55.258Z,69.60
2018-02-27T22:48:22.267Z,68.80
2018-02-27T22:50:50.043Z,69.40
2018-02-27T22:53:17.059Z,68.90
2018-02-27T22:55:44.076Z,68.90
2018-02-27T22:58:11.080Z,69.40
2018-02-27T23:00:39.877Z,68.90
2018-02-27T23:03:06.897Z,69.80
2018-02-27T23:05:35.112Z,69.80
2018-02-27T23:08:02.563Z,69.20
2018-02-27T23:10:30.023Z,69.20
2018-02-27T23:12:57.475Z,69.40
2018-02-27T23:15:24.931Z,69.50
2018-02-27T23:17:52.387Z,70.20
2018-02-27T23:20:19.855Z,70.20
2018-02-27T23:22:46.861Z,70.10
2018-02-27T23:25:14.773Z,71.70
2018-02-27T23:27:41.838Z,71.20
2018-02-27T23:30:08.901Z,71.40
2018-02-27T23:32:36.666Z,71.50
2018-02-27T23:35:07.336Z,71.90
2018-02-27T23:37:34.306Z,71.50
2018-02-27T23:40:01.320Z,71.60
2018-02-27T23:42:28.323Z,71.50
2018-02-27T23:44:55.330Z,71.30
2018-02-27T23:47:23.107Z,72.10
2018-02-27T23:49:50.114Z,71.70
2018-02-27T23:52:17.118Z,71.60
2018-02-27T23:54:44.130Z,71.50
2018-02-27T23:57:11.130Z,71.80
2018-02-27T23:59:38.902Z,73.40
